KAND/AND METAR and TAF weather

Enter ICAO airport designator
Station Type Date Time Source
KAND METAR 2022/05/24 11:56 UTC NOAA

KAND 241156Z AUTO 00000KT 10SM CLR 20/18 A3007 RMK AO2 SLP176 70052 T02000183 10200 20178 53014


Station Type Date Time Source
KAND Decoded METAR 2022/05/24 11:56 UTC NOAA

ANDERSON COUNTY AIRPORT, SC, United States (KAND) 34-30N 82-43W 239M
May 24, 2022 - 07:56 AM EDT / 2022.05.24 1156 UTC
Wind: Calm:0
Visibility: 10 mile(s):0
Sky conditions: clear
Temperature: 68.0 F (20.0 C)
Dew Point: 64.9 F (18.3 C)
Relative Humidity: 89%
Pressure (altimeter): 30.07 in. Hg (1018 hPa)
Pressure tendency: 0.04 inches (1.4 hPa) higher than three hours ago
ob: KAND 241156Z AUTO 00000KT 10SM CLR 20/18 A3007 RMK AO2 SLP176 70052 T02000183 10200 20178 53014
cycle: 12

Station Type Date Time Source
KAND TAF 2022/05/24 12:28 UTC NOAA

TAF KAND 241126Z 2412/2512 18004KT P6SM BKN250
FM241500 24008KT P6SM SCT040 BKN250
FM242300 16003KT P6SM SCT045 BKN090 PROB30 2500/2504 4SM -SHRA BR OVC025
FM250400 07006KT P6SM VCSH BKN022
FM250600 07008KT P6SM BKN009

Example: see airport list